sensor_id;sensor_type;location;lat;lon;timestamp;pressure;altitude;pressure_sealevel;temperature;humidity
52319;BME280;38258;51.148;14.068;2023-07-31T00:01:07;98061.38;;;11.67;100.00
52319;BME280;38258;51.148;14.068;2023-07-31T00:03:33;98073.38;;;11.73;100.00
52319;BME280;38258;51.148;14.068;2023-07-31T00:06:00;98057.59;;;11.74;100.00
52319;BME280;38258;51.148;14.068;2023-07-31T00:08:27;98058.47;;;11.75;100.00
52319;BME280;38258;51.148;14.068;2023-07-31T00:10:55;98059.25;;;11.77;100.00
52319;BME280;38258;51.148;14.068;2023-07-31T00:13:22;98061.91;;;11.76;100.00
52319;BME280;38258;51.148;14.068;2023-07-31T00:15:48;98068.16;;;11.73;100.00
52319;BME280;38258;51.148;14.068;2023-07-31T00:18:15;98066.19;;;11.78;100.00
52319;BME280;38258;51.148;14.068;2023-07-31T00:20:42;98066.44;;;11.72;100.00
52319;BME280;38258;51.148;14.068;2023-07-31T00:23:09;98057.50;;;11.78;100.00
52319;BME280;38258;51.148;14.068;2023-07-31T00:25:35;98053.44;;;11.69;100.00
52319;BME280;38258;51.148;14.068;2023-07-31T00:28:04;98053.81;;;11.59;100.00
52319;BME280;38258;51.148;14.068;2023-07-31T00:30:31;98047.69;;;11.59;100.00
52319;BME280;38258;51.148;14.068;2023-07-31T00:32:57;98053.56;;;11.66;100.00
52319;BME280;38258;51.148;14.068;2023-07-31T00:35:24;98050.22;;;11.62;100.00
52319;BME280;38258;51.148;14.068;2023-07-31T00:37:51;98053.00;;;11.57;100.00
52319;BME280;38258;51.148;14.068;2023-07-31T00:40:18;98055.72;;;11.54;100.00
52319;BME280;38258;51.148;14.068;2023-07-31T00:42:45;98038.13;;;11.58;100.00
52319;BME280;38258;51.148;14.068;2023-07-31T00:45:15;98051.34;;;11.55;100.00
52319;BME280;38258;51.148;14.068;2023-07-31T00:47:41;98058.13;;;11.60;100.00
52319;BME280;38258;51.148;14.068;2023-07-31T00:50:09;98040.78;;;11.80;100.00
52319;BME280;38258;51.148;14.068;2023-07-31T00:52:38;98047.56;;;11.86;100.00
52319;BME280;38258;51.148;14.068;2023-07-31T00:55:05;98042.47;;;11.81;100.00
52319;BME280;38258;51.148;14.068;2023-07-31T00:57:33;98046.09;;;11.79;100.00
52319;BME280;38258;51.148;14.068;2023-07-31T01:00:01;98046.09;;;11.79;100.00
52319;BME280;38258;51.148;14.068;2023-07-31T01:02:30;98042.91;;;11.70;100.00
52319;BME280;38258;51.148;14.068;2023-07-31T01:04:56;98039.38;;;11.71;100.00
52319;BME280;38258;51.148;14.068;2023-07-31T01:07:29;98035.31;;;11.86;100.00
52319;BME280;38258;51.148;14.068;2023-07-31T01:10:01;98031.03;;;12.08;100.00
52319;BME280;38258;51.148;14.068;2023-07-31T01:12:30;98032.22;;;12.21;100.00
52319;BME280;38258;51.148;14.068;2023-07-31T01:15:08;98033.63;;;12.30;100.00
52319;BME280;38258;51.148;14.068;2023-07-31T01:17:37;98019.72;;;12.28;100.00
52319;BME280;38258;51.148;14.068;2023-07-31T01:20:09;98021.63;;;12.45;100.00
52319;BME280;38258;51.148;14.068;2023-07-31T01:22:54;98023.28;;;12.48;100.00
52319;BME280;38258;51.148;14.068;2023-07-31T01:25:51;98013.69;;;12.47;100.00
52319;BME280;38258;51.148;14.068;2023-07-31T01:28:20;98005.69;;;12.50;100.00
52319;BME280;38258;51.148;14.068;2023-07-31T01:30:51;98009.97;;;12.52;100.00
52319;BME280;38258;51.148;14.068;2023-07-31T01:33:21;98009.63;;;12.39;100.00
52319;BME280;38258;51.148;14.068;2023-07-31T01:35:48;98009.78;;;12.57;100.00
52319;BME280;38258;51.148;14.068;2023-07-31T01:38:20;98002.66;;;12.38;100.00
52319;BME280;38258;51.148;14.068;2023-07-31T01:40:52;97995.94;;;12.53;100.00
52319;BME280;38258;51.148;14.068;2023-07-31T01:43:19;98000.00;;;12.40;100.00
52319;BME280;38258;51.148;14.068;2023-07-31T01:45:46;98004.00;;;12.28;100.00
52319;BME280;38258;51.148;14.068;2023-07-31T01:48:13;98001.22;;;12.52;100.00
52319;BME280;38258;51.148;14.068;2023-07-31T01:50:40;98001.03;;;12.36;100.00
52319;BME280;38258;51.148;14.068;2023-07-31T01:53:07;98003.91;;;12.29;100.00
52319;BME280;38258;51.148;14.068;2023-07-31T01:55:34;98004.63;;;12.33;100.00
52319;BME280;38258;51.148;14.068;2023-07-31T01:58:02;97999.53;;;12.51;100.00
52319;BME280;38258;51.148;14.068;2023-07-31T02:00:29;97993.97;;;12.79;100.00
52319;BME280;38258;51.148;14.068;2023-07-31T02:02:55;97994.88;;;12.78;100.00
52319;BME280;38258;51.148;14.068;2023-07-31T02:05:21;97994.16;;;12.75;100.00
52319;BME280;38258;51.148;14.068;2023-07-31T02:07:48;97990.28;;;12.83;100.00
52319;BME280;38258;51.148;14.068;2023-07-31T02:10:15;97991.69;;;12.91;100.00
52319;BME280;38258;51.148;14.068;2023-07-31T02:12:42;97991.25;;;13.01;100.00
52319;BME280;38258;51.148;14.068;2023-07-31T02:15:10;97995.63;;;13.01;100.00
52319;BME280;38258;51.148;14.068;2023-07-31T02:17:37;97989.25;;;13.07;100.00
52319;BME280;38258;51.148;14.068;2023-07-31T02:20:05;97981.22;;;13.10;100.00
52319;BME280;38258;51.148;14.068;2023-07-31T02:22:33;97989.88;;;13.12;100.00
52319;BME280;38258;51.148;14.068;2023-07-31T02:24:59;97984.38;;;13.18;100.00
52319;BME280;38258;51.148;14.068;2023-07-31T02:27:26;97996.41;;;13.03;100.00
52319;BME280;38258;51.148;14.068;2023-07-31T02:29:53;97984.38;;;13.18;100.00
52319;BME280;38258;51.148;14.068;2023-07-31T02:32:21;97987.56;;;13.25;100.00
52319;BME280;38258;51.148;14.068;2023-07-31T02:34:48;97985.88;;;13.24;100.00
52319;BME280;38258;51.148;14.068;2023-07-31T02:37:16;97988.41;;;13.25;100.00
52319;BME280;38258;51.148;14.068;2023-07-31T02:39:43;97990.19;;;13.25;100.00
52319;BME280;38258;51.148;14.068;2023-07-31T02:42:09;97972.53;;;13.28;100.00
52319;BME280;38258;51.148;14.068;2023-07-31T02:44:36;97977.34;;;13.38;100.00
52319;BME280;38258;51.148;14.068;2023-07-31T02:47:03;97977.09;;;13.44;100.00
52319;BME280;38258;51.148;14.068;2023-07-31T02:49:31;97975.63;;;13.37;100.00
52319;BME280;38258;51.148;14.068;2023-07-31T02:51:58;97974.03;;;13.34;100.00
52319;BME280;38258;51.148;14.068;2023-07-31T02:54:25;97974.72;;;13.38;100.00
52319;BME280;38258;51.148;14.068;2023-07-31T02:56:52;97983.50;;;13.37;100.00
52319;BME280;38258;51.148;14.068;2023-07-31T02:59:21;97982.88;;;13.32;100.00
52319;BME280;38258;51.148;14.068;2023-07-31T03:01:47;97977.13;;;13.42;100.00
52319;BME280;38258;51.148;14.068;2023-07-31T03:04:14;97983.25;;;13.43;100.00
52319;BME280;38258;51.148;14.068;2023-07-31T03:06:42;97979.91;;;13.39;100.00
52319;BME280;38258;51.148;14.068;2023-07-31T03:09:09;97978.91;;;13.42;100.00
52319;BME280;38258;51.148;14.068;2023-07-31T03:11:36;97983.31;;;13.41;100.00
52319;BME280;38258;51.148;14.068;2023-07-31T03:14:03;97976.41;;;13.39;100.00
52319;BME280;38258;51.148;14.068;2023-07-31T03:16:29;97983.53;;;13.56;100.00
52319;BME280;38258;51.148;14.068;2023-07-31T03:18:56;97974.59;;;13.60;100.00
52319;BME280;38258;51.148;14.068;2023-07-31T03:21:23;97974.94;;;13.52;100.00
52319;BME280;38258;51.148;14.068;2023-07-31T03:23:51;97974.59;;;13.60;100.00
52319;BME280;38258;51.148;14.068;2023-07-31T03:26:18;97969.97;;;13.65;100.00
52319;BME280;38258;51.148;14.068;2023-07-31T03:28:45;97973.38;;;13.67;100.00
52319;BME280;38258;51.148;14.068;2023-07-31T03:31:11;97973.91;;;13.56;100.00
52319;BME280;38258;51.148;14.068;2023-07-31T03:33:38;97976.06;;;13.66;100.00
52319;BME280;38258;51.148;14.068;2023-07-31T03:36:05;97971.47;;;13.71;100.00
52319;BME280;38258;51.148;14.068;2023-07-31T03:38:33;97975.09;;;13.68;100.00
52319;BME280;38258;51.148;14.068;2023-07-31T03:41:01;97977.72;;;13.68;100.00
52319;BME280;38258;51.148;14.068;2023-07-31T03:43:28;97979.47;;;13.68;100.00
52319;BME280;38258;51.148;14.068;2023-07-31T03:45:55;97976.16;;;13.64;100.00
52319;BME280;38258;51.148;14.068;2023-07-31T03:48:24;97971.69;;;13.66;100.00
52319;BME280;38258;51.148;14.068;2023-07-31T03:50:50;97977.69;;;13.88;100.00
52319;BME280;38258;51.148;14.068;2023-07-31T03:53:17;97966.63;;;13.98;100.00
52319;BME280;38258;51.148;14.068;2023-07-31T03:55:44;97968.41;;;13.98;100.00
52319;BME280;38258;51.148;14.068;2023-07-31T03:58:12;97974.47;;;14.00;100.00
52319;BME280;38258;51.148;14.068;2023-07-31T04:00:40;97970.44;;;14.10;100.00
52319;BME280;38258;51.148;14.068;2023-07-31T04:03:06;97966.81;;;14.13;100.00
52319;BME280;38258;51.148;14.068;2023-07-31T04:05:33;97968.66;;;14.11;100.00
52319;BME280;38258;51.148;14.068;2023-07-31T04:08:04;97973.75;;;14.14;100.00
52319;BME280;38258;51.148;14.068;2023-07-31T04:10:31;97968.13;;;14.22;100.00
52319;BME280;38258;51.148;14.068;2023-07-31T04:12:58;97967.72;;;14.12;100.00
52319;BME280;38258;51.148;14.068;2023-07-31T04:15:27;97968.28;;;14.19;100.00
52319;BME280;38258;51.148;14.068;2023-07-31T04:17:53;97967.03;;;14.08;100.00
52319;BME280;38258;51.148;14.068;2023-07-31T04:20:20;97973.00;;;14.12;100.00
52319;BME280;38258;51.148;14.068;2023-07-31T04:22:47;97977.53;;;14.08;100.00
52319;BME280;38258;51.148;14.068;2023-07-31T04:25:14;97980.41;;;14.04;100.00
52319;BME280;38258;51.148;14.068;2023-07-31T04:27:40;97980.88;;;13.94;100.00
52319;BME280;38258;51.148;14.068;2023-07-31T04:30:08;97971.50;;;13.89;100.00
52319;BME280;38258;51.148;14.068;2023-07-31T04:32:36;97970.22;;;13.78;100.00
52319;BME280;38258;51.148;14.068;2023-07-31T04:35:03;97964.69;;;13.84;100.00
52319;BME280;38258;51.148;14.068;2023-07-31T04:37:30;97968.69;;;13.74;100.00
52319;BME280;38258;51.148;14.068;2023-07-31T04:39:57;97967.91;;;13.72;100.00
52319;BME280;38258;51.148;14.068;2023-07-31T04:42:24;97960.31;;;13.66;100.00
52319;BME280;38258;51.148;14.068;2023-07-31T04:44:50;97963.25;;;13.60;100.00
52319;BME280;38258;51.148;14.068;2023-07-31T04:47:18;97958.53;;;13.66;100.00
52319;BME280;38258;51.148;14.068;2023-07-31T04:49:46;97959.31;;;13.68;100.00
52319;BME280;38258;51.148;14.068;2023-07-31T04:52:13;97951.50;;;13.67;100.00
52319;BME280;38258;51.148;14.068;2023-07-31T04:54:40;97956.75;;;13.67;100.00
52319;BME280;38258;51.148;14.068;2023-07-31T04:57:06;97953.13;;;13.69;100.00
52319;BME280;38258;51.148;14.068;2023-07-31T04:59:33;97960.03;;;13.72;100.00
52319;BME280;38258;51.148;14.068;2023-07-31T05:02:00;97949.34;;;13.75;100.00
52319;BME280;38258;51.148;14.068;2023-07-31T05:04:27;97944.66;;;13.82;100.00
52319;BME280;38258;51.148;14.068;2023-07-31T05:06:55;97943.50;;;13.88;100.00
52319;BME280;38258;51.148;14.068;2023-07-31T05:09:22;97938.56;;;13.99;100.00
52319;BME280;38258;51.148;14.068;2023-07-31T05:11:48;97940.66;;;13.92;100.00
52319;BME280;38258;51.148;14.068;2023-07-31T05:14:15;97938.41;;;13.84;100.00
52319;BME280;38258;51.148;14.068;2023-07-31T05:16:42;97932.44;;;14.16;100.00
52319;BME280;38258;51.148;14.068;2023-07-31T05:19:09;97934.00;;;14.03;100.00
52319;BME280;38258;51.148;14.068;2023-07-31T05:21:36;97937.50;;;14.03;100.00
52319;BME280;38258;51.148;14.068;2023-07-31T05:24:04;97934.75;;;14.05;100.00
52319;BME280;38258;51.148;14.068;2023-07-31T05:26:31;97932.00;;;14.08;100.00
52319;BME280;38258;51.148;14.068;2023-07-31T05:28:58;97926.13;;;14.20;100.00
52319;BME280;38258;51.148;14.068;2023-07-31T05:31:24;97924.34;;;14.21;100.00
52319;BME280;38258;51.148;14.068;2023-07-31T05:33:51;97925.50;;;14.15;100.00
52319;BME280;38258;51.148;14.068;2023-07-31T05:36:18;97912.81;;;14.23;100.00
52319;BME280;38258;51.148;14.068;2023-07-31T05:38:45;97917.75;;;14.30;100.00
52319;BME280;38258;51.148;14.068;2023-07-31T05:41:13;97918.84;;;14.25;100.00
52319;BME280;38258;51.148;14.068;2023-07-31T05:43:40;97917.44;;;14.18;100.00
52319;BME280;38258;51.148;14.068;2023-07-31T05:46:06;97916.22;;;14.25;100.00
52319;BME280;38258;51.148;14.068;2023-07-31T05:48:34;97916.81;;;14.31;100.00
52319;BME280;38258;51.148;14.068;2023-07-31T05:51:01;97914.44;;;14.44;100.00
52319;BME280;38258;51.148;14.068;2023-07-31T05:53:28;97911.31;;;14.35;100.00
52319;BME280;38258;51.148;14.068;2023-07-31T05:55:55;97915.97;;;14.48;100.00
52319;BME280;38258;51.148;14.068;2023-07-31T05:58:23;97909.78;;;14.31;100.00
52319;BME280;38258;51.148;14.068;2023-07-31T06:00:50;97913.97;;;14.35;100.00
52319;BME280;38258;51.148;14.068;2023-07-31T06:03:16;97912.31;;;14.33;100.00
52319;BME280;38258;51.148;14.068;2023-07-31T06:05:43;97907.22;;;14.30;100.00
52319;BME280;38258;51.148;14.068;2023-07-31T06:08:10;97910.94;;;14.43;100.00
52319;BME280;38258;51.148;14.068;2023-07-31T06:10:37;97900.00;;;14.51;100.00
52319;BME280;38258;51.148;14.068;2023-07-31T06:13:04;97903.34;;;14.54;100.00
52319;BME280;38258;51.148;14.068;2023-07-31T06:15:32;97907.50;;;14.59;100.00
52319;BME280;38258;51.148;14.068;2023-07-31T06:17:58;97903.63;;;14.48;100.00
52319;BME280;38258;51.148;14.068;2023-07-31T06:20:27;97903.63;;;14.48;100.00
52319;BME280;38258;51.148;14.068;2023-07-31T06:22:54;97907.91;;;14.51;100.00
52319;BME280;38258;51.148;14.068;2023-07-31T06:25:21;97908.84;;;14.50;100.00
52319;BME280;38258;51.148;14.068;2023-07-31T06:27:47;97906.50;;;14.61;100.00
52319;BME280;38258;51.148;14.068;2023-07-31T06:30:14;97910.88;;;14.45;100.00
52319;BME280;38258;51.148;14.068;2023-07-31T06:32:42;97909.69;;;14.50;100.00
52319;BME280;38258;51.148;14.068;2023-07-31T06:35:09;97912.06;;;14.55;100.00
52319;BME280;38258;51.148;14.068;2023-07-31T06:37:35;97914.16;;;14.48;100.00
52319;BME280;38258;51.148;14.068;2023-07-31T06:40:03;97907.13;;;14.49;100.00
52319;BME280;38258;51.148;14.068;2023-07-31T06:42:33;97913.47;;;14.62;100.00
52319;BME280;38258;51.148;14.068;2023-07-31T06:45:00;97923.28;;;14.59;100.00
52319;BME280;38258;51.148;14.068;2023-07-31T06:47:27;97908.88;;;14.66;100.00
52319;BME280;38258;51.148;14.068;2023-07-31T06:49:55;97911.91;;;14.76;100.00
52319;BME280;38258;51.148;14.068;2023-07-31T06:52:22;97908.34;;;14.77;100.00
52319;BME280;38258;51.148;14.068;2023-07-31T06:55:01;97922.19;;;14.80;100.00
52319;BME280;38258;51.148;14.068;2023-07-31T06:57:28;97918.94;;;14.75;100.00
52319;BME280;38258;51.148;14.068;2023-07-31T06:59:55;97908.94;;;14.82;100.00
52319;BME280;38258;51.148;14.068;2023-07-31T07:02:21;97914.53;;;14.76;100.00
52319;BME280;38258;51.148;14.068;2023-07-31T07:04:50;97915.66;;;14.72;100.00
52319;BME280;38258;51.148;14.068;2023-07-31T07:07:18;97920.09;;;14.87;100.00
52319;BME280;38258;51.148;14.068;2023-07-31T07:09:45;97920.63;;;14.76;100.00
52319;BME280;38258;51.148;14.068;2023-07-31T07:12:12;97915.00;;;15.00;100.00
52319;BME280;38258;51.148;14.068;2023-07-31T07:14:38;97915.75;;;14.86;100.00
52319;BME280;38258;51.148;14.068;2023-07-31T07:17:05;97921.72;;;15.06;100.00
52319;BME280;38258;51.148;14.068;2023-07-31T07:19:32;97913.47;;;15.12;100.00
52319;BME280;38258;51.148;14.068;2023-07-31T07:21:59;97917.88;;;14.95;100.00
52319;BME280;38258;51.148;14.068;2023-07-31T07:24:28;97916.72;;;15.17;100.00
52319;BME280;38258;51.148;14.068;2023-07-31T07:27:00;97917.81;;;15.13;100.00
52319;BME280;38258;51.148;14.068;2023-07-31T07:29:28;97918.69;;;15.30;100.00
52319;BME280;38258;51.148;14.068;2023-07-31T07:31:54;97919.53;;;15.30;100.00
52319;BME280;38258;51.148;14.068;2023-07-31T07:34:22;97916.56;;;15.20;100.00
52319;BME280;38258;51.148;14.068;2023-07-31T07:36:49;97908.56;;;15.54;100.00
52319;BME280;38258;51.148;14.068;2023-07-31T07:39:15;97911.19;;;15.54;100.00
52319;BME280;38258;51.148;14.068;2023-07-31T07:41:44;97900.16;;;15.78;100.00
52319;BME280;38258;51.148;14.068;2023-07-31T07:44:10;97900.44;;;15.89;100.00
52319;BME280;38258;51.148;14.068;2023-07-31T07:46:37;97896.78;;;16.22;100.00
52319;BME280;38258;51.148;14.068;2023-07-31T07:49:04;97896.50;;;16.42;100.00
52319;BME280;38258;51.148;14.068;2023-07-31T07:51:31;97894.94;;;16.53;100.00
52319;BME280;38258;51.148;14.068;2023-07-31T07:53:58;97885.59;;;16.62;100.00
52319;BME280;38258;51.148;14.068;2023-07-31T07:56:26;97897.84;;;16.78;100.00
52319;BME280;38258;51.148;14.068;2023-07-31T07:58:54;97892.56;;;16.63;100.00
52319;BME280;38258;51.148;14.068;2023-07-31T08:01:21;97893.31;;;16.65;100.00
52319;BME280;38258;51.148;14.068;2023-07-31T08:03:48;97894.47;;;16.61;100.00
52319;BME280;38258;51.148;14.068;2023-07-31T08:06:15;97894.47;;;16.76;100.00
52319;BME280;38258;51.148;14.068;2023-07-31T08:08:41;97891.91;;;16.74;100.00
52319;BME280;38258;51.148;14.068;2023-07-31T08:11:08;97899.16;;;16.71;100.00
52319;BME280;38258;51.148;14.068;2023-07-31T08:13:35;97902.56;;;16.58;100.00
52319;BME280;38258;51.148;14.068;2023-07-31T08:16:03;97902.84;;;16.68;100.00
52319;BME280;38258;51.148;14.068;2023-07-31T08:18:30;97899.47;;;16.66;100.00
52319;BME280;38258;51.148;14.068;2023-07-31T08:20:57;97894.19;;;16.80;100.00
52319;BME280;38258;51.148;14.068;2023-07-31T08:23:24;97905.13;;;17.03;100.00
52319;BME280;38258;51.148;14.068;2023-07-31T08:25:50;97905.56;;;17.24;100.00
52319;BME280;38258;51.148;14.068;2023-07-31T08:28:17;97896.19;;;17.33;100.00
52319;BME280;38258;51.148;14.068;2023-07-31T08:30:44;97906.81;;;17.61;100.00
52319;BME280;38258;51.148;14.068;2023-07-31T08:33:12;97902.94;;;17.79;100.00
52319;BME280;38258;51.148;14.068;2023-07-31T08:35:39;97901.13;;;18.07;100.00
52319;BME280;38258;51.148;14.068;2023-07-31T08:38:06;97903.19;;;18.43;100.00
52319;BME280;38258;51.148;14.068;2023-07-31T08:40:35;97908.47;;;18.17;100.00
52319;BME280;38258;51.148;14.068;2023-07-31T08:43:03;97899.16;;;18.76;100.00
52319;BME280;38258;51.148;14.068;2023-07-31T08:45:30;97885.72;;;19.29;100.00
52319;BME280;38258;51.148;14.068;2023-07-31T08:47:57;97896.41;;;18.64;100.00
52319;BME280;38258;51.148;14.068;2023-07-31T08:50:26;97897.44;;;19.01;100.00
52319;BME280;38258;51.148;14.068;2023-07-31T08:52:53;97901.06;;;18.61;100.00
52319;BME280;38258;51.148;14.068;2023-07-31T08:55:20;97899.03;;;18.77;100.00
52319;BME280;38258;51.148;14.068;2023-07-31T08:57:50;97897.22;;;19.17;100.00
52319;BME280;38258;51.148;14.068;2023-07-31T09:00:19;97898.88;;;18.55;100.00
52319;BME280;38258;51.148;14.068;2023-07-31T09:02:55;97899.00;;;19.29;100.00
52319;BME280;38258;51.148;14.068;2023-07-31T09:05:23;97906.78;;;18.93;100.00
52319;BME280;38258;51.148;14.068;2023-07-31T09:07:51;97899.13;;;19.15;100.00
52319;BME280;38258;51.148;14.068;2023-07-31T09:10:18;97899.88;;;19.41;100.00
52319;BME280;38258;51.148;14.068;2023-07-31T09:12:45;97911.56;;;19.01;100.00
52319;BME280;38258;51.148;14.068;2023-07-31T09:15:13;97898.53;;;18.46;100.00
52319;BME280;38258;51.148;14.068;2023-07-31T09:17:40;97901.53;;;18.01;100.00
52319;BME280;38258;51.148;14.068;2023-07-31T09:20:14;97900.66;;;18.01;100.00
52319;BME280;38258;51.148;14.068;2023-07-31T09:22:41;97909.84;;;17.82;100.00
52319;BME280;38258;51.148;14.068;2023-07-31T09:25:15;97907.69;;;17.74;100.00
52319;BME280;38258;51.148;14.068;2023-07-31T09:27:47;97903.22;;;17.75;100.00
52319;BME280;38258;51.148;14.068;2023-07-31T09:30:14;97902.00;;;17.80;100.00
52319;BME280;38258;51.148;14.068;2023-07-31T09:32:41;97896.38;;;17.72;100.00
52319;BME280;38258;51.148;14.068;2023-07-31T09:35:13;97891.09;;;17.85;100.00
52319;BME280;38258;51.148;14.068;2023-07-31T09:37:40;97889.34;;;17.71;100.00
52319;BME280;38258;51.148;14.068;2023-07-31T09:40:08;97889.66;;;17.94;100.00
52319;BME280;38258;51.148;14.068;2023-07-31T09:42:36;97895.31;;;18.02;100.00
52319;BME280;38258;51.148;14.068;2023-07-31T09:45:10;97892.50;;;17.91;100.00
52319;BME280;38258;51.148;14.068;2023-07-31T09:47:37;97889.13;;;17.89;100.00
52319;BME280;38258;51.148;14.068;2023-07-31T09:50:07;97885.50;;;17.90;100.00
52319;BME280;38258;51.148;14.068;2023-07-31T09:52:34;97888.38;;;17.87;100.00
52319;BME280;38258;51.148;14.068;2023-07-31T09:55:05;97885.09;;;17.96;100.00
52319;BME280;38258;51.148;14.068;2023-07-31T09:57:33;97882.44;;;17.83;100.00
52319;BME280;38258;51.148;14.068;2023-07-31T10:00:02;97882.63;;;17.80;100.00
52319;BME280;38258;51.148;14.068;2023-07-31T10:02:37;97889.50;;;17.83;100.00
52319;BME280;38258;51.148;14.068;2023-07-31T10:05:06;97884.66;;;17.89;100.00
52319;BME280;38258;51.148;14.068;2023-07-31T10:07:36;97884.44;;;17.79;100.00
52319;BME280;38258;51.148;14.068;2023-07-31T10:10:04;97874.78;;;17.78;100.00
52319;BME280;38258;51.148;14.068;2023-07-31T10:12:33;97882.50;;;17.69;100.00
52319;BME280;38258;51.148;14.068;2023-07-31T10:15:03;97877.41;;;18.06;100.00
52319;BME280;38258;51.148;14.068;2023-07-31T10:17:31;97882.44;;;18.23;100.00
52319;BME280;38258;51.148;14.068;2023-07-31T10:19:58;97880.44;;;18.66;100.00
52319;BME280;38258;51.148;14.068;2023-07-31T10:22:27;97882.44;;;18.62;100.00
52319;BME280;38258;51.148;14.068;2023-07-31T10:24:55;97873.44;;;18.65;100.00
52319;BME280;38258;51.148;14.068;2023-07-31T10:27:24;97868.84;;;18.80;100.00
52319;BME280;38258;51.148;14.068;2023-07-31T10:29:52;97865.16;;;18.70;100.00
52319;BME280;38258;51.148;14.068;2023-07-31T10:32:21;97868.47;;;18.60;100.00
52319;BME280;38258;51.148;14.068;2023-07-31T10:34:50;97864.44;;;18.55;100.00
52319;BME280;38258;51.148;14.068;2023-07-31T10:37:24;97865.72;;;18.49;100.00
52319;BME280;38258;51.148;14.068;2023-07-31T10:39:56;97856.47;;;18.42;100.00
52319;BME280;38258;51.148;14.068;2023-07-31T10:42:28;97858.38;;;18.65;100.00
52319;BME280;38258;51.148;14.068;2023-07-31T10:44:57;97856.81;;;18.37;100.00
52319;BME280;38258;51.148;14.068;2023-07-31T10:47:26;97855.25;;;18.98;100.00
52319;BME280;38258;51.148;14.068;2023-07-31T10:50:13;97859.53;;;19.25;100.00
52319;BME280;38258;51.148;14.068;2023-07-31T10:52:40;97855.31;;;19.71;100.00
52319;BME280;38258;51.148;14.068;2023-07-31T10:55:23;97840.25;;;19.23;100.00
52319;BME280;38258;51.148;14.068;2023-07-31T10:57:50;97838.56;;;19.46;100.00
52319;BME280;38258;51.148;14.068;2023-07-31T11:00:25;97833.44;;;19.31;100.00
52319;BME280;38258;51.148;14.068;2023-07-31T11:03:02;97832.25;;;19.60;100.00
52319;BME280;38258;51.148;14.068;2023-07-31T11:05:46;97841.41;;;20.39;100.00
52319;BME280;38258;51.148;14.068;2023-07-31T11:08:15;97835.59;;;20.22;100.00
52319;BME280;38258;51.148;14.068;2023-07-31T11:10:42;97838.94;;;20.01;100.00
52319;BME280;38258;51.148;14.068;2023-07-31T11:13:09;97842.91;;;19.96;100.00
52319;BME280;38258;51.148;14.068;2023-07-31T11:15:36;97834.97;;;19.83;100.00
52319;BME280;38258;51.148;14.068;2023-07-31T11:18:04;97827.28;;;19.91;100.00
52319;BME280;38258;51.148;14.068;2023-07-31T11:20:34;97833.50;;;20.03;100.00
52319;BME280;38258;51.148;14.068;2023-07-31T11:23:02;97823.59;;;19.69;100.00
52319;BME280;38258;51.148;14.068;2023-07-31T11:25:30;97827.72;;;20.09;100.00
52319;BME280;38258;51.148;14.068;2023-07-31T11:27:58;97819.91;;;19.83;100.00
52319;BME280;38258;51.148;14.068;2023-07-31T11:30:28;97819.66;;;19.86;100.00
52319;BME280;38258;51.148;14.068;2023-07-31T11:32:55;97809.97;;;20.10;100.00
52319;BME280;38258;51.148;14.068;2023-07-31T11:35:23;97806.34;;;20.11;100.00
52319;BME280;38258;51.148;14.068;2023-07-31T11:37:50;97819.19;;;20.51;100.00
52319;BME280;38258;51.148;14.068;2023-07-31T11:40:17;97818.19;;;20.06;100.00
52319;BME280;38258;51.148;14.068;2023-07-31T11:42:45;97818.66;;;19.76;100.00
52319;BME280;38258;51.148;14.068;2023-07-31T11:45:12;97824.13;;;19.26;100.00
52319;BME280;38258;51.148;14.068;2023-07-31T11:47:39;97831.50;;;19.09;100.00
52319;BME280;38258;51.148;14.068;2023-07-31T11:50:07;97827.78;;;19.12;100.00
52319;BME280;38258;51.148;14.068;2023-07-31T11:52:40;97826.03;;;18.99;100.00
52319;BME280;38258;51.148;14.068;2023-07-31T11:55:08;97845.09;;;18.91;100.00
52319;BME280;38258;51.148;14.068;2023-07-31T11:57:38;97832.94;;;19.26;100.00
52319;BME280;38258;51.148;14.068;2023-07-31T12:00:07;97828.03;;;19.33;100.00
52319;BME280;38258;51.148;14.068;2023-07-31T12:02:36;97827.91;;;19.34;100.00
52319;BME280;38258;51.148;14.068;2023-07-31T12:05:05;97809.81;;;19.28;100.00
52319;BME280;38258;51.148;14.068;2023-07-31T12:07:48;97805.38;;;19.40;100.00
52319;BME280;38258;51.148;14.068;2023-07-31T12:10:26;97800.34;;;20.43;100.00
52319;BME280;38258;51.148;14.068;2023-07-31T12:12:58;97796.88;;;20.54;100.00
52319;BME280;38258;51.148;14.068;2023-07-31T12:15:30;97780.53;;;20.13;100.00
52319;BME280;38258;51.148;14.068;2023-07-31T12:17:57;97786.09;;;20.21;100.00
52319;BME280;38258;51.148;14.068;2023-07-31T12:20:24;97780.41;;;19.67;100.00
52319;BME280;38258;51.148;14.068;2023-07-31T12:22:52;97778.38;;;20.29;100.00
52319;BME280;38258;51.148;14.068;2023-07-31T12:25:22;97772.09;;;20.87;100.00
52319;BME280;38258;51.148;14.068;2023-07-31T12:27:50;97771.38;;;21.29;100.00
52319;BME280;38258;51.148;14.068;2023-07-31T12:30:27;97769.97;;;22.63;100.00
52319;BME280;38258;51.148;14.068;2023-07-31T12:32:54;97773.66;;;22.40;100.00
52319;BME280;38258;51.148;14.068;2023-07-31T12:35:21;97760.28;;;23.42;100.00
52319;BME280;38258;51.148;14.068;2023-07-31T12:37:48;97763.88;;;22.92;95.42
52319;BME280;38258;51.148;14.068;2023-07-31T12:40:16;97757.44;;;22.53;94.53
52319;BME280;38258;51.148;14.068;2023-07-31T12:42:43;97747.75;;;23.03;100.00
52319;BME280;38258;51.148;14.068;2023-07-31T12:45:10;97739.81;;;22.72;93.04